Decoded Metar for LQSA (SARAJEVO in BOSNIA-HERCEGOVINA) (IATA:SJJ) | Meteo·Mobile Aviation Weather
aviador You're here:

LQSA Decoded Metar

SARAJEVO in BOSNIA-HERCEGOVINA
Report Time2019-09-23 08:30:00
UTC Time2019-09-23 08:53:57
Flight Rules vfr VFR
WindVRB at 01 kt
Visibility9999 m
Phenomena:N/A
Clouds:Few 060 Hf
Expected CloudBase > 2,400 ft AGL from Temp-Dew spread
CeilingNone
Temp17°C (ISA +5)
Dew Point11°C (68% RH)
QNH1015 hPa
Density Alt2,418 ft
Elevation1,677 ft
Report Wrong Elevation
Raw Report
LQSA 230830Z VRB01KT 9999 FEW060 17/11 Q1015 NOSIG=

Extra information for LQSA:More info

Metar Taf Metar & Taf Last 4 Metars F.Rules Stats Wind Profile Meteogram Temp Stats Airport Information Weather charts Add Link Nearby VenuesMetar ALERT Operation Metar Decoded Social comments